createdAt,value
2023-05-21T00:00:08.469Z,55.53
2023-05-21T00:02:40.168Z,55.35
2023-05-21T00:05:13.765Z,55.56
2023-05-21T00:07:41.756Z,55.51
2023-05-21T00:10:09.214Z,55.29
2023-05-21T00:12:36.245Z,55.45
2023-05-21T00:15:03.483Z,55.47
2023-05-21T00:17:31.580Z,55.25
2023-05-21T00:19:59.047Z,55.36
2023-05-21T00:22:26.074Z,55.36
2023-05-21T00:24:52.978Z,55.58
2023-05-21T00:27:19.979Z,55.47
2023-05-21T00:29:46.920Z,55.42
2023-05-21T00:32:13.971Z,55.28
2023-05-21T00:34:41.721Z,55.41
2023-05-21T00:37:10.193Z,55.62
2023-05-21T00:39:37.272Z,55.84
2023-05-21T00:42:04.593Z,55.83
2023-05-21T00:44:34.579Z,55.72
2023-05-21T00:47:02.697Z,55.68
2023-05-21T00:49:30.917Z,55.86
2023-05-21T00:51:58.087Z,55.58
2023-05-21T00:54:25.271Z,55.59
2023-05-21T00:56:52.408Z,55.84
2023-05-21T00:59:19.665Z,55.54
2023-05-21T01:01:46.746Z,55.55
2023-05-21T01:04:13.996Z,55.78
2023-05-21T01:06:40.909Z,55.62
2023-05-21T01:09:09.473Z,55.75
2023-05-21T01:11:43.718Z,55.54
2023-05-21T01:14:13.012Z,55.93
2023-05-21T01:16:42.546Z,55.78
2023-05-21T01:19:14.376Z,55.95
2023-05-21T01:21:45.492Z,55.85
2023-05-21T01:24:12.437Z,56.14
2023-05-21T01:26:41.474Z,55.96
2023-05-21T01:29:13.491Z,56.29
2023-05-21T01:32:07.393Z,56.31
2023-05-21T01:35:13.474Z,56.15
2023-05-21T01:38:05.139Z,56.38
2023-05-21T01:40:38.585Z,56.10
2023-05-21T01:43:07.393Z,56.33
2023-05-21T01:45:39.086Z,56.44
2023-05-21T01:48:08.095Z,56.48
2023-05-21T01:50:37.295Z,56.37
2023-05-21T01:53:06.087Z,56.45
2023-05-21T01:55:33.612Z,56.71
2023-05-21T01:58:02.489Z,56.57
2023-05-21T02:00:31.119Z,56.55
2023-05-21T02:02:59.015Z,56.89
2023-05-21T02:05:26.386Z,56.85
2023-05-21T02:07:55.140Z,56.95
2023-05-21T02:10:22.928Z,57.06
2023-05-21T02:12:49.952Z,56.90
2023-05-21T02:15:18.294Z,56.93
2023-05-21T02:17:46.784Z,57.12
2023-05-21T02:20:14.737Z,57.11
2023-05-21T02:22:48.086Z,57.27
2023-05-21T02:25:18.516Z,57.37
2023-05-21T02:27:47.129Z,57.31
2023-05-21T02:30:15.816Z,57.44
2023-05-21T02:32:43.828Z,57.31
2023-05-21T02:35:12.729Z,57.42
2023-05-21T02:37:40.806Z,57.20
2023-05-21T02:40:10.349Z,57.19
2023-05-21T02:42:40.267Z,57.31
2023-05-21T02:45:10.446Z,57.22
2023-05-21T02:47:39.381Z,57.43
2023-05-21T02:50:09.193Z,57.40
2023-05-21T02:52:43.457Z,57.39
2023-05-21T02:55:10.779Z,57.13
2023-05-21T02:57:37.801Z,57.08
2023-05-21T03:00:09.029Z,57.14
2023-05-21T03:02:38.696Z,57.32
2023-05-21T03:05:06.716Z,57.11
2023-05-21T03:07:34.166Z,57.54
2023-05-21T03:10:01.724Z,57.53
2023-05-21T03:12:29.974Z,57.51
2023-05-21T03:14:57.033Z,57.49
2023-05-21T03:17:24.149Z,57.65
2023-05-21T03:19:51.440Z,57.62
2023-05-21T03:22:20.232Z,57.64
2023-05-21T03:24:47.279Z,57.67
2023-05-21T03:27:14.939Z,57.30
2023-05-21T03:29:44.848Z,57.44
2023-05-21T03:32:13.656Z,57.47
2023-05-21T03:34:41.423Z,57.38
2023-05-21T03:37:08.480Z,57.40
2023-05-21T03:39:35.515Z,57.23
2023-05-21T03:42:03.252Z,57.25
2023-05-21T03:44:40.352Z,57.63
2023-05-21T03:47:39.365Z,57.63
2023-05-21T03:50:09.674Z,57.56
2023-05-21T03:52:37.161Z,57.41
2023-05-21T03:55:05.192Z,57.69
2023-05-21T03:57:32.242Z,57.60
2023-05-21T03:59:59.581Z,57.72
2023-05-21T04:02:27.649Z,57.39
2023-05-21T04:04:56.241Z,57.39
2023-05-21T04:07:24.842Z,57.72
2023-05-21T04:09:51.890Z,57.54
2023-05-21T04:12:20.479Z,57.46
2023-05-21T04:14:48.170Z,57.78
2023-05-21T04:17:15.276Z,57.58
2023-05-21T04:19:42.255Z,57.50
2023-05-21T04:22:12.277Z,57.80
2023-05-21T04:24:39.634Z,57.53
2023-05-21T04:27:27.848Z,57.48
2023-05-21T04:29:55.000Z,57.41
2023-05-21T04:32:24.453Z,57.36
2023-05-21T04:34:51.439Z,57.73
2023-05-21T04:37:18.684Z,57.49
2023-05-21T04:39:47.110Z,57.13
2023-05-21T04:42:14.467Z,57.39
2023-05-21T04:44:44.729Z,57.28
2023-05-21T04:47:15.115Z,56.97
2023-05-21T04:49:42.492Z,57.23
2023-05-21T04:52:09.448Z,56.94
2023-05-21T04:54:39.138Z,56.75
2023-05-21T04:57:06.787Z,56.71
2023-05-21T04:59:35.318Z,56.64
2023-05-21T05:02:02.388Z,56.42
2023-05-21T05:04:29.561Z,56.41
2023-05-21T05:06:56.734Z,56.43
2023-05-21T05:09:25.436Z,56.21
2023-05-21T05:11:53.058Z,56.19
2023-05-21T05:14:20.177Z,56.47
2023-05-21T05:16:48.493Z,56.05
2023-05-21T05:19:16.497Z,56.21
2023-05-21T05:21:44.677Z,55.85
2023-05-21T05:24:12.257Z,55.67
2023-05-21T05:26:39.192Z,55.56
2023-05-21T05:29:06.228Z,55.69
2023-05-21T05:31:33.746Z,55.41
2023-05-21T05:34:01.167Z,55.32
2023-05-21T05:36:29.906Z,55.50
2023-05-21T05:38:57.193Z,55.44
2023-05-21T05:41:25.295Z,55.16
2023-05-21T05:43:53.643Z,55.06
2023-05-21T05:46:22.494Z,55.05
2023-05-21T05:48:51.128Z,54.67
2023-05-21T05:51:18.485Z,54.66
2023-05-21T05:53:47.965Z,54.79
2023-05-21T05:56:17.335Z,54.45
2023-05-21T05:58:45.439Z,54.29
2023-05-21T06:01:15.684Z,54.31
2023-05-21T06:03:42.782Z,54.06
2023-05-21T06:06:15.512Z,54.37
2023-05-21T06:08:42.958Z,53.95
2023-05-21T06:11:11.553Z,54.32
2023-05-21T06:13:39.343Z,53.63
2023-05-21T06:16:07.869Z,53.73
2023-05-21T06:18:36.681Z,53.54
2023-05-21T06:21:04.537Z,53.45
2023-05-21T06:23:32.895Z,53.65
2023-05-21T06:26:02.541Z,53.38
2023-05-21T06:28:29.887Z,53.46
2023-05-21T06:30:58.299Z,52.76
2023-05-21T06:33:27.786Z,52.59
2023-05-21T06:35:56.256Z,52.72
2023-05-21T06:38:24.754Z,52.54
2023-05-21T06:40:53.234Z,52.03
2023-05-21T06:43:38.314Z,51.75
2023-05-21T06:46:24.454Z,51.81
2023-05-21T06:48:53.052Z,51.83
2023-05-21T06:51:21.031Z,51.71
2023-05-21T06:53:48.579Z,51.70
2023-05-21T06:56:17.131Z,51.58
2023-05-21T06:58:44.520Z,51.30
2023-05-21T07:01:12.257Z,51.44
2023-05-21T07:03:39.636Z,50.93
2023-05-21T07:06:08.545Z,51.14
2023-05-21T07:08:35.507Z,50.21
2023-05-21T07:11:03.785Z,50.46
2023-05-21T07:13:31.501Z,50.61
2023-05-21T07:15:58.847Z,50.48
2023-05-21T07:18:26.963Z,49.96
2023-05-21T07:20:54.557Z,50.21
2023-05-21T07:23:21.775Z,50.09
2023-05-21T07:25:48.804Z,49.70
2023-05-21T07:28:15.946Z,50.29
2023-05-21T07:30:43.999Z,49.76
2023-05-21T07:33:14.841Z,49.54
2023-05-21T07:35:42.478Z,48.96
2023-05-21T07:38:09.843Z,49.23
2023-05-21T07:40:38.309Z,49.08
2023-05-21T07:43:06.076Z,48.88
2023-05-21T07:45:35.037Z,48.29
2023-05-21T07:48:03.054Z,47.76
2023-05-21T07:50:32.777Z,47.98
2023-05-21T07:53:00.270Z,47.59
2023-05-21T07:55:27.556Z,47.73
2023-05-21T07:57:55.112Z,47.19
2023-05-21T08:00:28.848Z,46.71
2023-05-21T08:02:57.839Z,46.01
2023-05-21T08:05:26.321Z,46.24
2023-05-21T08:07:53.455Z,45.73
2023-05-21T08:10:21.478Z,45.97
2023-05-21T08:12:51.290Z,46.24
2023-05-21T08:15:19.140Z,45.67
2023-05-21T08:17:46.709Z,45.39
2023-05-21T08:20:15.451Z,45.19
2023-05-21T08:22:44.791Z,44.57
2023-05-21T08:25:13.770Z,44.25
2023-05-21T08:27:41.258Z,44.09
2023-05-21T08:30:11.757Z,44.06
2023-05-21T08:32:39.179Z,43.98
2023-05-21T08:35:07.638Z,43.98
2023-05-21T08:37:50.504Z,43.75
2023-05-21T08:40:25.354Z,43.40
2023-05-21T08:42:52.678Z,42.51
2023-05-21T08:45:38.549Z,43.01
2023-05-21T08:48:07.203Z,42.67
2023-05-21T08:50:35.933Z,42.12
2023-05-21T08:53:19.918Z,41.87
2023-05-21T08:55:56.436Z,41.55
2023-05-21T08:58:25.796Z,41.51
2023-05-21T09:00:55.436Z,41.66
2023-05-21T09:03:26.942Z,41.74
2023-05-21T09:05:55.403Z,41.65
2023-05-21T09:08:32.956Z,41.26
2023-05-21T09:11:03.959Z,41.32
2023-05-21T09:13:46.640Z,41.40
2023-05-21T09:16:21.893Z,42.16
2023-05-21T09:18:49.748Z,41.82
2023-05-21T09:21:31.823Z,41.98
2023-05-21T09:24:04.246Z,41.72
2023-05-21T09:26:31.560Z,41.96
2023-05-21T09:29:04.451Z,41.61
2023-05-21T09:31:33.178Z,41.79
2023-05-21T09:34:01.448Z,41.38
2023-05-21T09:36:29.828Z,41.22
2023-05-21T09:38:58.657Z,41.30
2023-05-21T09:41:34.065Z,41.39
2023-05-21T09:44:02.967Z,40.95
2023-05-21T09:46:42.793Z,40.35
2023-05-21T09:49:26.801Z,40.54
2023-05-21T09:51:59.412Z,40.66
2023-05-21T09:54:31.718Z,40.55
2023-05-21T09:57:02.689Z,40.71
2023-05-21T09:59:37.445Z,40.77
2023-05-21T10:02:16.790Z,40.84
2023-05-21T10:04:48.115Z,40.37
2023-05-21T10:07:26.145Z,40.58
2023-05-21T10:09:56.330Z,40.59
2023-05-21T10:12:27.607Z,40.28
2023-05-21T10:15:04.175Z,39.95
2023-05-21T10:17:33.010Z,39.95
2023-05-21T10:20:03.462Z,39.44
2023-05-21T10:22:31.478Z,39.15
2023-05-21T10:25:02.578Z,38.94
2023-05-21T10:27:32.333Z,38.68
2023-05-21T10:30:01.778Z,38.06
2023-05-21T10:32:31.507Z,38.44
2023-05-21T10:35:01.495Z,38.08
2023-05-21T10:37:29.531Z,38.01
2023-05-21T10:39:57.327Z,38.04
2023-05-21T10:42:24.451Z,37.96
2023-05-21T10:45:01.349Z,37.70
2023-05-21T10:47:42.783Z,37.63
2023-05-21T10:50:38.479Z,37.74
2023-05-21T10:53:24.822Z,38.29
2023-05-21T10:56:22.255Z,37.92
2023-05-21T10:59:26.973Z,37.88
2023-05-21T11:01:55.550Z,37.51
2023-05-21T11:04:29.311Z,36.91
2023-05-21T11:06:58.920Z,36.91
2023-05-21T11:09:27.223Z,36.17
2023-05-21T11:11:59.153Z,35.79
2023-05-21T11:14:39.556Z,35.67
2023-05-21T11:17:06.990Z,35.06
2023-05-21T11:19:35.160Z,36.01
2023-05-21T11:22:06.798Z,35.82
2023-05-21T11:24:39.946Z,35.30
2023-05-21T11:27:07.283Z,35.37
2023-05-21T11:29:40.899Z,35.85
2023-05-21T11:32:13.968Z,35.83
2023-05-21T11:34:46.673Z,34.91
2023-05-21T11:37:18.540Z,34.96
2023-05-21T11:39:52.186Z,34.38
2023-05-21T11:42:40.093Z,34.43
2023-05-21T11:45:11.985Z,34.34
2023-05-21T11:48:03.400Z,34.57
2023-05-21T11:50:32.447Z,34.77
2023-05-21T11:53:00.854Z,34.06
2023-05-21T11:55:28.143Z,33.87
2023-05-21T11:57:55.890Z,33.55
2023-05-21T12:00:23.368Z,33.81
2023-05-21T12:03:01.257Z,33.85
2023-05-21T12:05:31.831Z,34.21
2023-05-21T12:08:09.999Z,33.66
2023-05-21T12:10:58.604Z,33.45
2023-05-21T12:13:26.499Z,33.73
2023-05-21T12:15:54.872Z,33.14
2023-05-21T12:18:27.547Z,33.02
2023-05-21T12:20:55.488Z,33.84
2023-05-21T12:23:26.401Z,34.31
2023-05-21T12:26:02.008Z,32.76
2023-05-21T12:28:29.815Z,32.60
2023-05-21T12:30:56.949Z,33.17
2023-05-21T12:33:26.197Z,32.40
2023-05-21T12:35:53.307Z,33.05
2023-05-21T12:38:20.903Z,33.21
2023-05-21T12:40:47.991Z,32.96
2023-05-21T12:43:16.439Z,32.85
2023-05-21T12:45:44.636Z,32.91
2023-05-21T12:48:12.840Z,33.14
2023-05-21T12:50:55.807Z,33.09
2023-05-21T12:53:38.475Z,33.97
2023-05-21T12:56:11.862Z,33.71
2023-05-21T12:58:39.368Z,33.22
2023-05-21T13:01:11.630Z,33.00
2023-05-21T13:03:41.548Z,33.48
2023-05-21T13:06:09.320Z,33.15
2023-05-21T13:08:36.650Z,32.61
2023-05-21T13:11:04.640Z,33.10
2023-05-21T13:13:31.568Z,33.65
2023-05-21T13:16:00.860Z,33.05
2023-05-21T13:18:28.178Z,32.75
2023-05-21T13:20:55.197Z,32.18
2023-05-21T13:23:23.440Z,31.83
2023-05-21T13:25:50.901Z,30.98
2023-05-21T13:28:18.051Z,31.45
2023-05-21T13:30:45.492Z,32.61
2023-05-21T13:33:13.454Z,32.51
2023-05-21T13:35:41.154Z,32.53
2023-05-21T13:38:08.673Z,31.72
2023-05-21T13:40:38.106Z,31.88
2023-05-21T13:43:25.613Z,31.70
2023-05-21T13:45:52.870Z,30.86
2023-05-21T13:48:20.300Z,31.32
2023-05-21T13:50:48.475Z,30.73
2023-05-21T13:53:15.748Z,30.95
2023-05-21T13:55:42.721Z,30.33
2023-05-21T13:58:09.999Z,30.71
2023-05-21T14:00:37.213Z,30.78
2023-05-21T14:03:06.855Z,30.04
2023-05-21T14:05:34.530Z,30.47
2023-05-21T14:08:01.906Z,30.45
2023-05-21T14:10:28.896Z,30.61
2023-05-21T14:13:04.293Z,31.45
2023-05-21T14:15:39.052Z,31.68
2023-05-21T14:18:08.261Z,31.27
2023-05-21T14:20:35.883Z,31.51
2023-05-21T14:23:04.706Z,31.41
2023-05-21T14:25:36.586Z,31.69
2023-05-21T14:28:13.144Z,31.49
2023-05-21T14:30:43.830Z,31.69
2023-05-21T14:33:11.893Z,31.54
2023-05-21T14:35:39.479Z,30.96
2023-05-21T14:38:06.729Z,30.57
2023-05-21T14:40:33.787Z,30.51
2023-05-21T14:43:00.881Z,30.60
2023-05-21T14:45:33.228Z,30.75
2023-05-21T14:48:00.520Z,31.55
2023-05-21T14:50:30.218Z,31.95
2023-05-21T14:52:57.368Z,31.39
2023-05-21T14:55:24.605Z,32.30
2023-05-21T14:57:56.391Z,32.43
2023-05-21T15:00:25.215Z,32.56
2023-05-21T15:02:54.031Z,32.79
2023-05-21T15:05:23.130Z,32.89
2023-05-21T15:07:50.478Z,32.99
2023-05-21T15:10:18.740Z,33.22
2023-05-21T15:12:46.430Z,32.85
2023-05-21T15:15:14.758Z,33.39
2023-05-21T15:17:41.920Z,33.00
2023-05-21T15:20:10.997Z,32.97
2023-05-21T15:22:38.803Z,33.14
2023-05-21T15:25:15.066Z,32.99
2023-05-21T15:27:44.624Z,33.14
2023-05-21T15:30:12.446Z,33.06
2023-05-21T15:32:48.696Z,33.28
2023-05-21T15:35:19.516Z,33.11
2023-05-21T15:37:49.196Z,33.57
2023-05-21T15:40:20.153Z,33.41
2023-05-21T15:42:53.464Z,33.32
2023-05-21T15:45:36.085Z,33.25
2023-05-21T15:48:07.428Z,33.41
2023-05-21T15:50:38.544Z,33.20
2023-05-21T15:53:05.833Z,33.85
2023-05-21T15:55:33.872Z,33.85
2023-05-21T15:58:02.572Z,33.38
2023-05-21T16:00:30.049Z,33.59
2023-05-21T16:03:06.821Z,33.73
2023-05-21T16:05:56.388Z,33.73
2023-05-21T16:08:25.035Z,34.03
2023-05-21T16:10:52.130Z,34.19
2023-05-21T16:13:21.755Z,34.28
2023-05-21T16:15:50.236Z,34.21
2023-05-21T16:21:23.999Z,34.65
2023-05-21T16:23:52.599Z,34.69
2023-05-21T16:26:21.792Z,35.06
2023-05-21T16:28:49.259Z,34.78
2023-05-21T16:31:16.663Z,34.94
2023-05-21T16:33:45.132Z,34.71
2023-05-21T16:36:12.456Z,34.82
2023-05-21T16:38:39.692Z,35.20
2023-05-21T16:41:09.927Z,34.91
2023-05-21T16:43:38.509Z,35.03
2023-05-21T16:46:08.679Z,34.98
2023-05-21T16:48:38.050Z,35.25
2023-05-21T16:51:09.098Z,35.13
2023-05-21T16:53:36.472Z,35.24
2023-05-21T16:56:03.703Z,35.21
2023-05-21T16:58:36.298Z,35.26
2023-05-21T17:01:04.217Z,35.50
2023-05-21T17:03:32.773Z,35.37
2023-05-21T17:06:00.139Z,35.70
2023-05-21T17:08:28.282Z,35.68
2023-05-21T17:10:55.829Z,35.78
2023-05-21T17:13:23.559Z,36.18
2023-05-21T17:15:51.747Z,35.83
2023-05-21T17:18:19.088Z,36.10
2023-05-21T17:20:46.472Z,36.24
2023-05-21T17:23:16.461Z,36.10
2023-05-21T17:25:43.818Z,36.08
2023-05-21T17:28:11.515Z,36.03
2023-05-21T17:30:39.351Z,36.27
2023-05-21T17:33:08.003Z,36.28
2023-05-21T17:35:35.624Z,36.52
2023-05-21T17:38:03.241Z,36.49
2023-05-21T17:40:30.497Z,36.64
2023-05-21T17:42:58.064Z,36.47
2023-05-21T17:45:26.339Z,36.95
2023-05-21T17:47:53.624Z,37.10
2023-05-21T17:50:20.980Z,37.02
2023-05-21T17:52:48.324Z,37.23
2023-05-21T17:55:15.554Z,37.28
2023-05-21T17:57:42.850Z,37.40
2023-05-21T18:00:10.896Z,37.28
2023-05-21T18:02:40.980Z,37.49
2023-05-21T18:05:08.908Z,37.67
2023-05-21T18:07:37.389Z,37.78
2023-05-21T18:10:09.371Z,37.76
2023-05-21T18:12:36.582Z,37.95
2023-05-21T18:15:05.139Z,38.10
2023-05-21T18:17:33.163Z,38.01
2023-05-21T18:20:00.394Z,37.96
2023-05-21T18:22:27.375Z,38.42
2023-05-21T18:24:57.079Z,38.61
2023-05-21T18:27:24.207Z,38.16
2023-05-21T18:29:52.668Z,38.59
2023-05-21T18:32:20.418Z,38.37
2023-05-21T18:34:48.749Z,38.80
2023-05-21T18:37:17.312Z,38.84
2023-05-21T18:39:44.701Z,38.89
2023-05-21T18:42:13.971Z,39.14
2023-05-21T18:44:41.788Z,39.16
2023-05-21T18:47:09.403Z,39.13
2023-05-21T18:49:36.686Z,39.29
2023-05-21T18:52:08.015Z,39.05
2023-05-21T18:54:35.336Z,39.47
2023-05-21T18:57:02.653Z,39.00
2023-05-21T18:59:31.758Z,39.34
2023-05-21T19:01:59.277Z,39.78
2023-05-21T19:04:31.309Z,39.46
2023-05-21T19:06:58.473Z,39.72
2023-05-21T19:09:25.842Z,39.75
2023-05-21T19:11:53.039Z,40.04
2023-05-21T19:14:21.256Z,40.25
2023-05-21T19:16:48.402Z,40.32
2023-05-21T19:19:15.502Z,40.07
2023-05-21T19:21:44.035Z,40.44
2023-05-21T19:24:11.276Z,40.23
2023-05-21T19:26:38.540Z,40.52
2023-05-21T19:29:05.976Z,40.57
2023-05-21T19:31:33.690Z,40.66
2023-05-21T19:34:01.015Z,40.54
2023-05-21T19:36:34.983Z,40.81
2023-05-21T19:39:10.986Z,40.87
2023-05-21T19:41:38.189Z,40.85
2023-05-21T19:44:05.312Z,41.21
2023-05-21T19:46:32.617Z,41.19
2023-05-21T19:48:59.785Z,41.40
2023-05-21T19:51:27.330Z,41.49
2023-05-21T19:53:55.720Z,41.60
2023-05-21T19:56:23.069Z,41.50
2023-05-21T19:58:51.355Z,41.76
2023-05-21T20:01:19.078Z,42.01
2023-05-21T20:03:46.847Z,41.71
2023-05-21T20:06:20.159Z,41.87
2023-05-21T20:08:49.486Z,41.80
2023-05-21T20:11:16.613Z,41.88
2023-05-21T20:13:53.631Z,41.96
2023-05-21T20:16:21.002Z,42.08
2023-05-21T20:18:48.134Z,42.00
2023-05-21T20:21:18.250Z,42.38
2023-05-21T20:23:47.796Z,42.26
2023-05-21T20:26:19.384Z,42.16
2023-05-21T20:28:46.452Z,42.21
2023-05-21T20:31:13.881Z,42.73
2023-05-21T20:33:42.065Z,42.94
2023-05-21T20:36:09.491Z,42.47
2023-05-21T20:38:38.590Z,42.76
2023-05-21T20:41:06.178Z,42.84
2023-05-21T20:43:38.916Z,42.62
2023-05-21T20:46:06.542Z,42.88
2023-05-21T20:48:35.474Z,42.83
2023-05-21T20:51:04.779Z,42.98
2023-05-21T20:53:32.314Z,42.92
2023-05-21T20:56:01.864Z,42.94
2023-05-21T20:58:29.929Z,43.41
2023-05-21T21:00:58.429Z,43.26
2023-05-21T21:03:25.574Z,43.52
2023-05-21T21:05:53.198Z,43.78
2023-05-21T21:08:25.156Z,43.75
2023-05-21T21:10:52.200Z,43.64
2023-05-21T21:13:19.429Z,44.08
2023-05-21T21:15:46.575Z,44.02
2023-05-21T21:18:14.611Z,44.09
2023-05-21T21:20:42.884Z,44.20
2023-05-21T21:23:16.845Z,44.38
2023-05-21T21:25:44.193Z,44.39
2023-05-21T21:28:11.286Z,44.32
2023-05-21T21:30:41.330Z,44.57
2023-05-21T21:33:09.113Z,44.34
2023-05-21T21:35:36.305Z,44.38
2023-05-21T21:38:05.444Z,44.79
2023-05-21T21:40:32.489Z,44.80
2023-05-21T21:42:59.657Z,44.92
2023-05-21T21:45:27.093Z,44.64
2023-05-21T21:47:54.562Z,45.14
2023-05-21T21:50:21.796Z,45.05
2023-05-21T21:52:50.396Z,44.85
2023-05-21T21:55:19.274Z,45.18
2023-05-21T21:57:46.716Z,45.40
2023-05-21T22:00:19.949Z,45.18
2023-05-21T22:02:47.117Z,45.62
2023-05-21T22:05:17.226Z,45.11
2023-05-21T22:07:48.077Z,45.34
2023-05-21T22:10:19.557Z,45.24
2023-05-21T22:12:49.525Z,45.42
2023-05-21T22:15:23.128Z,45.71
2023-05-21T22:17:50.471Z,45.60
2023-05-21T22:20:18.664Z,45.88
2023-05-21T22:22:46.390Z,45.90
2023-05-21T22:25:14.660Z,45.67
2023-05-21T22:27:43.312Z,45.53
2023-05-21T22:30:11.135Z,45.56
2023-05-21T22:32:38.560Z,45.64
2023-05-21T22:35:06.475Z,45.50
2023-05-21T22:37:33.623Z,45.67
2023-05-21T22:40:00.639Z,45.30
2023-05-21T22:42:27.807Z,45.59
2023-05-21T22:44:56.472Z,45.52
2023-05-21T22:47:24.006Z,45.18
2023-05-21T22:49:53.521Z,45.25
2023-05-21T22:52:24.613Z,44.95
2023-05-21T22:54:52.919Z,45.72
2023-05-21T22:57:20.527Z,45.25
2023-05-21T22:59:47.586Z,45.45
2023-05-21T23:02:15.835Z,45.23
2023-05-21T23:04:44.644Z,45.18
2023-05-21T23:07:12.680Z,45.05
2023-05-21T23:09:39.709Z,45.18
2023-05-21T23:12:08.152Z,45.34
2023-05-21T23:14:35.186Z,45.17
2023-05-21T23:17:02.593Z,45.34
2023-05-21T23:19:29.821Z,45.42
2023-05-21T23:21:57.286Z,45.22
2023-05-21T23:24:25.392Z,45.23
2023-05-21T23:26:52.698Z,45.02
2023-05-21T23:29:19.878Z,44.99
2023-05-21T23:31:47.308Z,44.99
2023-05-21T23:34:14.677Z,45.07
2023-05-21T23:36:41.717Z,44.86
2023-05-21T23:39:09.523Z,45.08
2023-05-21T23:41:38.067Z,44.91
2023-05-21T23:44:05.271Z,45.07
2023-05-21T23:46:32.311Z,45.26
2023-05-21T23:48:59.309Z,45.20
2023-05-21T23:51:26.642Z,45.15
2023-05-21T23:53:54.230Z,44.93
2023-05-21T23:56:22.403Z,45.26
2023-05-21T23:58:50.276Z,45.14
